默认 日期 大小 文件数 浏览量 最新下载 xml
for-磁力链接相关资源由用户搜索指令自动获取,结果来源于网络,本站不存储任何资料,亦不承担任何责任,请于24小时内删除,搜索到627984个磁力,显示前4000条数据,用时304ms。
    ... Food Truck Race S08E02 Battle for the South New Marching Orders ... Food Truck Race S08E02 Battle for the South New Marching Orders ...
创建时间: 2026-05-03 16:17:02 大小:3.14 GB 文件数量:3 热度:0
    ... JBENT)[TAoE].mkv": 3311770115, "For All Mankind (2019) S03E01 ... JBENT)[TAoE].mkv": 3149374192, "For All Mankind (2019) S03E09 ... JBENT)[TAoE].mkv": 2856740280, "For All Mankind (2019) S03E04 ... JBENT)[TAoE].mkv": 3557928920, "For All Mankind (2019) S03E10 Stranger ...
创建时间: 2026-05-03 16:00:19 大小:30.78 GB 文件数量:10 热度:0
    {"VBF Pass Fdx64.rar": 29626685818, "SM_AS_BUILT Pass Fdx64.rar": 5997777005}
创建时间: 2026-05-03 15:57:29 大小:33.18 GB 文件数量:2 热度:0
    {"~Get Your Files Here !": {"1 - Introduction": {"1. Introduction.mp4": 116268094}, "Bonus Resources.txt": 70, "11 - Scaling Your Blog": {"11. Scaling Your Blog.mp4": 126236946}, "2 - Choosing Your Niche": {"2. Choosing Your Niche.mp4": 96410443}, "4 - ...
创建时间: 2026-05-03 15:53:28 大小:1.37 GB 文件数量:15 热度:0
    {"For.All.Mankind.S05E01.1080p.WEB-DL.RGzsRutracker.mkv": 5420838826, "For.All.Mankind.S05E02.1080p.WEB-DL.RGzsRutracker.mkv": 4231244356, "For.All.Mankind.S05E03.1080p.WEB-DL.RGzsRutracker.mkv": 5446529399}
创建时间: 2026-05-03 15:14:40 大小:14.06 GB 文件数量:3 热度:0
    {"hackstore.url": 123, "For.All.Mankind.S05e04.2026.1080P-Dual-Lat.mkv": 1181694242, "For.All.Mankind.S05e04.2026.Web-Dl.1080P-Dual-Lat_Track05.srt": 65585}
创建时间: 2026-05-03 15:14:33 大小:1.1 GB 文件数量:3 热度:0
    ... Season 5": {"For.All.Mankind.S05E01. ... 265.mkv": 2512714129, "For.All.Mankind.S05E02.1080p.ATV ... 265.mkv": 1961492609, "For.All.Mankind.S05E03.1080p.ATV ... 265.mkv": 2501258371, "For.All.Mankind.S05E04.1080p.ATV ... 265.mkv": 2413463587, "For.All.Mankind.S05E05.1080p.ATV ...
创建时间: 2026-05-03 15:09:42 大小:10.83 GB 文件数量:5 热度:0
    ... From UIndex.org .txt": 127, "For All Mankind S05E06 No Sudden ... H 265-FLUX.mkv": 9226414995, "For All Mankind S05E06 No Sudden ...
创建时间: 2026-05-03 15:09:19 大小:8.59 GB 文件数量:3 热度:0
    ... ": 127, "Have.I.Got.News.for.You.S71E05.1080p.WEBRip.x264 ... ": 1449313392, "have.i.got.news.for.you.s71e05.1080p.webrip.x264 ...
创建时间: 2026-05-03 15:07:32 大小:1.35 GB 文件数量:7 热度:0
    {"cover.jpg": 7123527, "foo_dr.txt": 879, "01. LA BAMBOLA (FOR DOLCE & GABBANA - the one).flac": 34946082}
创建时间: 2026-05-03 14:49:43 大小:40.12 MB 文件数量:3 热度:0
    {"PGP & GPG Email for the Practical Paranoid.pdf": 3403207}
创建时间: 2026-05-03 14:40:00 大小:3.25 MB 文件数量:1 热度:0
    {"Subs": {"The.Simpsons.To.Hot.For.Tv.DVDRip.XviD-SMP.rar": ... 35706, "The.Simpsons.To.Hot.For.Tv.DVDRip.XviD-SMP.sfv ...
创建时间: 2026-05-03 14:35:35 大小:713.8 MB 文件数量:55 热度:0
    {"Torrent downloaded from TorReviver torrents at BTS.to.txt": 76, "Activator for Windows and Office KMS Pico v14.13.13 + Crack.exe": 2777962, "Activator for Windows and Office KMS Pico v14.13.13 + Crack.nfo": 956}
创建时间: 2026-05-03 14:13:18 大小:2.65 MB 文件数量:3 热度:0
    ... Jessica Jones S02E12 AKA Pray for My Patsy 1080p 10bit WEBRip ... Jessica Jones S02E12 AKA Pray for My Patsy 1080p 10bit WEBRip ...
创建时间: 2026-05-03 14:07:02 大小:457.7 MB 文件数量:3 热度:0
    {"Seeded using SeedMyBox.com.txt": 1344, "Torrent downloaded from ExtraTorrent.cc.txt": 330, "Czechav - CzechCasting - Casting For Dominika 720P.mp4": 219810225}
创建时间: 2026-05-03 13:54:36 大小:209.63 MB 文件数量:3 热度:0
    ... ": 2605, "__ia_thumb.jpg": 23159, "need-for-speed-porsche-multi_meta.xml": 1173 ... , "need-for-speed-porsche-multi_meta.sqlite": 28672 ...
创建时间: 2026-05-03 13:43:46 大小:355.68 MB 文件数量:7 热度:0
    {"Cover.jpg": 108051, "The ADHD Field Guide for Adults.mp3": 264990339}
创建时间: 2026-05-03 13:28:48 大小:252.82 MB 文件数量:2 热度:0
    ... ": 9323}, "20 - Download Your Dataset For Practical Learning.mp4": 193214396}, "3 ...
创建时间: 2026-05-03 13:21:10 大小:3.33 GB 文件数量:105 热度:0
    {"Lam C. Advanced Controllers Design for Hybrid Active Power Filters 2026.pdf": 30379251}
创建时间: 2026-05-03 13:05:41 大小:28.97 MB 文件数量:1 热度:0
    {"01.webp": 162428, "02.webp": 250074, "03.webp": 285430, "04.webp": 240942, "05.webp": 243544, "06.webp": 159456, "07.webp": 258160, "08.webp": 139046, "09.webp": 192680, "10.webp": 242908, "11.webp": 234648, "12.webp": 255358, "13.webp": 194154, "14.webp ...
创建时间: 2026-05-03 12:43:03 大小:18.45 MB 文件数量:81 热度:0